sim
Sign-in with your pilot id or email,
or register
Callsign
Passwort

Schedule Details

Flight Number: OEO6747
Departure: Charlotte Douglas International Airport (KCLT) at 21:25
Arrival: Munich Airport (EDDM) at 06:30

Weather Information
Getting current METAR information for KCLT 240052Z 20004KT 10SM BKN190 BKN250 18/14 A3006 RMK AO2 SLP174 T01830144
Getting current METAR information for EDDM 240120Z 24003KT CAVOK 11/11 Q1009 NOSIG

Schedule Frequency

Route Map